Time;durP1;ratioP1;P1;durP2;ratioP2;P2;SDS_P1;SDS_P2;PMS_P1;PMS_P2;Temp;Humidity;BMP_temperature;BMP_pressure;BME280_temperature;BME280_humidity;BME280_pressure;Samples;Min_cycle;Max_cycle;Signal;HPM_P1;HPM_P2
2023/11/17 00:00:39;;;;;;;1.23;0.52;;;;;;;;;;6208482;23;20167;-92
2023/11/17 00:03:43;;;;;;;1.15;0.60;;;;;;;;;;6208337;23;20162;-91
2023/11/17 00:06:50;;;;;;;31.98;1.88;;;;;;;;;;6209150;23;20167;-91
2023/11/17 00:09:56;;;;;;;0.40;0.40;;;;;;;;;;6206724;23;20166;-92
2023/11/17 00:13:01;;;;;;;0.40;0.40;;;;;;;;;;6209775;23;20171;-92
2023/11/17 00:16:07;;;;;;;0.30;0.30;;;;;;;;;;6208895;23;20171;-90
2023/11/17 00:19:14;;;;;;;0.63;0.63;;;;;;;;;;6210855;23;20175;-92
2023/11/17 00:22:21;;;;;;;0.55;0.55;;;;;;;;;;6211049;23;20295;-91
2023/11/17 00:25:28;;;;;;;0.40;0.40;;;;;;;;;;6210011;23;20187;-93
2023/11/17 00:28:39;;;;;;;0.30;0.30;;;;;;;;;;6211672;23;20155;-91
2023/11/17 00:31:44;;;;;;;0.50;0.50;;;;;;;;;;6208599;23;20187;-92
2023/11/17 00:34:49;;;;;;;0.30;0.30;;;;;;;;;;6210478;23;20187;-93
2023/11/17 00:37:56;;;;;;;0.57;0.57;;;;;;;;;;6209279;23;20226;-91
2023/11/17 00:41:02;;;;;;;0.30;0.30;;;;;;;;;;6208209;23;20186;-91
2023/11/17 00:44:08;;;;;;;0.30;0.30;;;;;;;;;;6209569;23;20171;-93
2023/11/17 00:47:15;;;;;;;0.30;0.30;;;;;;;;;;6208642;22;20171;-92
2023/11/17 00:50:20;;;;;;;0.28;0.28;;;;;;;;;;6207581;23;20175;-93
2023/11/17 00:53:28;;;;;;;0.40;0.40;;;;;;;;;;6208456;23;20163;-92
2023/11/17 00:56:33;;;;;;;0.30;0.30;;;;;;;;;;6208543;23;20166;-92
2023/11/17 00:59:38;;;;;;;0.33;0.33;;;;;;;;;;6209236;23;20152;-93
2023/11/17 01:02:44;;;;;;;0.30;0.30;;;;;;;;;;6209556;23;20171;-93
2023/11/17 01:05:49;;;;;;;0.20;0.20;;;;;;;;;;6208432;23;20166;-93
2023/11/17 01:08:56;;;;;;;0.33;0.33;;;;;;;;;;6208491;23;20218;-91
2023/11/17 01:12:01;;;;;;;0.30;0.30;;;;;;;;;;6209772;23;20171;-94
2023/11/17 01:15:07;;;;;;;0.30;0.30;;;;;;;;;;6207623;23;20182;-92
2023/11/17 01:18:12;;;;;;;0.50;0.50;;;;;;;;;;6208517;23;20246;-93
2023/11/17 01:21:17;;;;;;;0.70;0.70;;;;;;;;;;6207103;23;20302;-92
2023/11/17 01:24:23;;;;;;;0.30;0.30;;;;;;;;;;6208049;23;20167;-92
2023/11/17 01:27:28;;;;;;;0.30;0.30;;;;;;;;;;6206913;23;20214;-93
2023/11/17 01:30:33;;;;;;;0.55;0.50;;;;;;;;;;6206612;22;20167;-92
2023/11/17 01:33:38;;;;;;;0.40;0.40;;;;;;;;;;6208205;23;20171;-94
2023/11/17 01:36:43;;;;;;;0.30;0.30;;;;;;;;;;6208437;23;20170;-92
2023/11/17 01:39:50;;;;;;;0.30;0.30;;;;;;;;;;6209575;23;20167;-94
2023/11/17 01:42:55;;;;;;;0.30;0.30;;;;;;;;;;6210840;23;20171;-93
2023/11/17 01:46:00;;;;;;;0.20;0.20;;;;;;;;;;6209442;22;20166;-92
2023/11/17 01:49:05;;;;;;;0.30;0.30;;;;;;;;;;6211020;23;20220;-93
2023/11/17 01:52:12;;;;;;;0.30;0.30;;;;;;;;;;6209394;23;20271;-92
2023/11/17 01:55:18;;;;;;;0.30;0.30;;;;;;;;;;6210548;23;20194;-92
2023/11/17 01:58:24;;;;;;;0.40;0.40;;;;;;;;;;6207516;23;20525;-92
2023/11/17 02:01:30;;;;;;;0.40;0.40;;;;;;;;;;6206302;23;20156;-92
2023/11/17 02:04:36;;;;;;;0.30;0.30;;;;;;;;;;6206614;23;20171;-92
2023/11/17 02:07:50;;;;;;;0.30;0.30;;;;;;;;;;6207150;23;20163;-93
2023/11/17 02:11:02;;;;;;;0.40;0.40;;;;;;;;;;6207482;23;20167;-93
2023/11/17 02:14:09;;;;;;;0.30;0.30;;;;;;;;;;6207895;23;20163;-92
2023/11/17 02:17:16;;;;;;;0.30;0.30;;;;;;;;;;6206129;23;20167;-93
2023/11/17 02:20:26;;;;;;;1.13;0.68;;;;;;;;;;6207784;23;20159;-95
2023/11/17 02:23:33;;;;;;;0.20;0.20;;;;;;;;;;6207352;23;20171;-91
2023/11/17 02:26:48;;;;;;;0.20;0.20;;;;;;;;;;6207970;23;20167;-93
2023/11/17 02:29:56;;;;;;;0.20;0.20;;;;;;;;;;6207929;23;20223;-94
2023/11/17 02:33:07;;;;;;;0.30;0.30;;;;;;;;;;6205755;23;20251;-93
2023/11/17 02:36:17;;;;;;;0.37;0.37;;;;;;;;;;6208656;23;20267;-92
2023/11/17 02:39:26;;;;;;;0.40;0.40;;;;;;;;;;6207922;23;20734;-93
2023/11/17 02:46:58;;;;;;;0.30;0.30;;;;;;;;;;6226208;23;20279;-93
2023/11/17 02:50:09;;;;;;;0.30;0.30;;;;;;;;;;6206961;23;20167;-92
2023/11/17 02:53:23;;;;;;;0.30;0.30;;;;;;;;;;6209027;23;20278;-92
2023/11/17 02:56:30;;;;;;;0.30;0.30;;;;;;;;;;6206156;23;20191;-93
2023/11/17 02:59:37;;;;;;;0.40;0.40;;;;;;;;;;6206330;23;20171;-92
2023/11/17 03:02:43;;;;;;;0.50;0.50;;;;;;;;;;6206976;23;20174;-92
2023/11/17 03:05:48;;;;;;;0.30;0.30;;;;;;;;;;6206986;23;20172;-93
2023/11/17 03:08:54;;;;;;;0.30;0.30;;;;;;;;;;6207305;23;20174;-93
2023/11/17 03:12:00;;;;;;;0.20;0.20;;;;;;;;;;6207129;23;20314;-93
2023/11/17 03:15:09;;;;;;;0.30;0.30;;;;;;;;;;6206859;23;20615;-93
2023/11/17 03:18:16;;;;;;;0.73;0.50;;;;;;;;;;6207342;23;20203;-92
2023/11/17 03:21:23;;;;;;;0.30;0.30;;;;;;;;;;6207445;23;20175;-93
2023/11/17 03:24:28;;;;;;;0.20;0.20;;;;;;;;;;6207518;23;20179;-92
2023/11/17 03:27:35;;;;;;;0.30;0.30;;;;;;;;;;6206760;23;20218;-92
2023/11/17 03:30:40;;;;;;;0.40;0.40;;;;;;;;;;6208431;23;20170;-93
2023/11/17 03:33:46;;;;;;;0.30;0.30;;;;;;;;;;6207955;23;20170;-92
2023/11/17 03:36:56;;;;;;;0.30;0.30;;;;;;;;;;6208651;23;20227;-92
2023/11/17 03:40:06;;;;;;;0.27;0.27;;;;;;;;;;6207973;23;20167;-94
2023/11/17 03:43:13;;;;;;;1.30;0.60;;;;;;;;;;6208121;23;20194;-93
2023/11/17 03:46:18;;;;;;;0.30;0.30;;;;;;;;;;6210079;23;20263;-91
2023/11/17 03:49:25;;;;;;;0.40;0.40;;;;;;;;;;6208988;23;20174;-93
2023/11/17 03:52:31;;;;;;;0.30;0.30;;;;;;;;;;6209249;23;20182;-92
2023/11/17 03:55:36;;;;;;;0.30;0.30;;;;;;;;;;6209353;23;20211;-92
2023/11/17 03:58:41;;;;;;;0.30;0.30;;;;;;;;;;6209869;23;20650;-92
2023/11/17 04:01:47;;;;;;;0.30;0.30;;;;;;;;;;6209480;23;20170;-91
2023/11/17 04:04:54;;;;;;;0.30;0.30;;;;;;;;;;6209310;23;20572;-92
2023/11/17 04:07:59;;;;;;;0.30;0.30;;;;;;;;;;6211581;23;20175;-91
2023/11/17 04:11:04;;;;;;;0.30;0.30;;;;;;;;;;6212546;22;20179;-92
2023/11/17 04:14:10;;;;;;;0.23;0.23;;;;;;;;;;6211566;23;20171;-93
2023/11/17 04:17:15;;;;;;;0.20;0.20;;;;;;;;;;6210950;23;20163;-93
2023/11/17 04:20:22;;;;;;;0.30;0.30;;;;;;;;;;6210030;23;20167;-93
2023/11/17 04:23:27;;;;;;;0.33;0.33;;;;;;;;;;6209836;23;20238;-93
2023/11/17 04:26:34;;;;;;;0.30;0.30;;;;;;;;;;6211799;23;20235;-90
2023/11/17 04:29:39;;;;;;;0.20;0.20;;;;;;;;;;6210546;22;20171;-92
2023/11/17 04:32:44;;;;;;;0.30;0.30;;;;;;;;;;6210139;23;20259;-92
2023/11/17 04:35:51;;;;;;;0.30;0.30;;;;;;;;;;6210951;23;20222;-92
2023/11/17 04:38:56;;;;;;;0.40;0.40;;;;;;;;;;6212146;23;20162;-92
2023/11/17 04:42:03;;;;;;;0.27;0.27;;;;;;;;;;6211653;22;20159;-92
2023/11/17 04:45:09;;;;;;;0.30;0.30;;;;;;;;;;6212972;22;20236;-94
2023/11/17 04:48:16;;;;;;;0.30;0.30;;;;;;;;;;6212022;22;20159;-92
2023/11/17 04:51:22;;;;;;;0.30;0.30;;;;;;;;;;6212745;23;20171;-91
2023/11/17 04:54:27;;;;;;;0.40;0.40;;;;;;;;;;6211452;23;20626;-93
2023/11/17 04:57:37;;;;;;;0.30;0.30;;;;;;;;;;6210843;22;20217;-91
2023/11/17 05:00:42;;;;;;;0.43;0.40;;;;;;;;;;6211865;22;20167;-91
2023/11/17 05:03:48;;;;;;;1.13;0.77;;;;;;;;;;6211348;23;20170;-92
2023/11/17 05:06:54;;;;;;;0.30;0.30;;;;;;;;;;6211447;23;20167;-91
2023/11/17 05:09:59;;;;;;;0.40;0.40;;;;;;;;;;6209291;23;20605;-91
2023/11/17 05:13:05;;;;;;;0.30;0.30;;;;;;;;;;6212668;23;20152;-91
2023/11/17 05:16:12;;;;;;;0.30;0.30;;;;;;;;;;6211757;23;20198;-92
2023/11/17 05:19:19;;;;;;;0.40;0.40;;;;;;;;;;6211413;23;20514;-92
2023/11/17 05:22:25;;;;;;;0.30;0.30;;;;;;;;;;6211271;23;20187;-93
2023/11/17 05:25:30;;;;;;;0.30;0.30;;;;;;;;;;6210295;23;20294;-93
2023/11/17 05:28:35;;;;;;;0.40;0.40;;;;;;;;;;6212420;23;20167;-93
2023/11/17 05:31:42;;;;;;;0.30;0.30;;;;;;;;;;6214587;23;20166;-92
2023/11/17 05:34:50;;;;;;;0.40;0.40;;;;;;;;;;6232661;22;20166;-93
2023/11/17 05:37:57;;;;;;;0.40;0.40;;;;;;;;;;6213110;23;20154;-91
2023/11/17 05:41:02;;;;;;;0.50;0.50;;;;;;;;;;6212355;23;20214;-92
2023/11/17 05:44:08;;;;;;;0.57;0.57;;;;;;;;;;6212555;23;20187;-93
2023/11/17 05:47:14;;;;;;;2.33;1.23;;;;;;;;;;6212850;22;20183;-93
2023/11/17 05:50:20;;;;;;;0.63;0.60;;;;;;;;;;6212774;23;20179;-92
2023/11/17 05:53:27;;;;;;;0.33;0.33;;;;;;;;;;6213568;23;20171;-92
2023/11/17 05:56:32;;;;;;;0.97;0.80;;;;;;;;;;6211057;23;20210;-92
2023/11/17 05:59:37;;;;;;;1.17;0.57;;;;;;;;;;6213974;23;20179;-91
2023/11/17 06:02:42;;;;;;;0.53;0.53;;;;;;;;;;6214698;22;20359;-92
2023/11/17 06:05:48;;;;;;;1.20;1.00;;;;;;;;;;6211651;23;20243;-93
2023/11/17 06:08:54;;;;;;;0.30;0.30;;;;;;;;;;6213401;23;20239;-92
2023/11/17 06:12:00;;;;;;;1.50;0.80;;;;;;;;;;6211221;23;20171;-91
2023/11/17 06:15:05;;;;;;;0.50;0.50;;;;;;;;;;6212731;22;20175;-93
2023/11/17 06:18:12;;;;;;;1.77;1.10;;;;;;;;;;6216610;22;20217;-91
2023/11/17 06:21:17;;;;;;;0.40;0.40;;;;;;;;;;6213660;23;20207;-93
2023/11/17 06:24:24;;;;;;;1.10;0.77;;;;;;;;;;6211400;23;20174;-91
2023/11/17 06:27:30;;;;;;;0.93;0.53;;;;;;;;;;6212742;23;20214;-91
2023/11/17 09:09:47;;;;;;;0.63;0.63;;;;;;;;;;6182762;22;20212;-91
2023/11/17 09:12:53;;;;;;;0.57;0.57;;;;;;;;;;6209850;23;20510;-92
2023/11/17 09:15:58;;;;;;;0.60;0.60;;;;;;;;;;6210609;23;20219;-92
2023/11/17 09:19:04;;;;;;;3.33;1.10;;;;;;;;;;6214178;23;20240;-92
2023/11/17 09:22:09;;;;;;;1.45;0.75;;;;;;;;;;6212390;23;20249;-92
2023/11/17 09:25:16;;;;;;;3.03;1.13;;;;;;;;;;6212135;23;20175;-91
2023/11/17 09:28:21;;;;;;;0.80;0.75;;;;;;;;;;6211960;23;20183;-91
2023/11/17 09:31:27;;;;;;;0.63;0.60;;;;;;;;;;6211816;23;20218;-91
2023/11/17 09:34:33;;;;;;;0.60;0.60;;;;;;;;;;6212308;23;20254;-91
2023/11/17 09:37:40;;;;;;;1.48;0.50;;;;;;;;;;6215252;23;20178;-92
2023/11/17 09:40:57;;;;;;;0.47;0.47;;;;;;;;;;6216685;23;20199;-92
2023/11/17 09:44:05;;;;;;;0.40;0.40;;;;;;;;;;6215592;23;20167;-93
2023/11/17 09:47:12;;;;;;;1.58;0.85;;;;;;;;;;6214763;23;20156;-92
2023/11/17 09:50:18;;;;;;;0.38;0.38;;;;;;;;;;6213141;22;20166;-89
2023/11/17 09:53:27;;;;;;;0.50;0.50;;;;;;;;;;6213705;23;20191;-93
2023/11/17 09:56:34;;;;;;;1.42;0.68;;;;;;;;;;6214642;23;20576;-93
2023/11/17 09:59:42;;;;;;;0.68;0.68;;;;;;;;;;6214761;23;20171;-91
2023/11/17 10:02:52;;;;;;;1.35;0.77;;;;;;;;;;6216667;23;20191;-91
2023/11/17 10:05:58;;;;;;;0.97;0.80;;;;;;;;;;6216751;23;20214;-93
2023/11/17 10:09:03;;;;;;;0.40;0.40;;;;;;;;;;6215717;23;20190;-93
2023/11/17 10:12:11;;;;;;;0.50;0.50;;;;;;;;;;6213713;23;20219;-91
2023/11/17 10:15:18;;;;;;;0.50;0.50;;;;;;;;;;6226878;23;20279;-91
2023/11/17 10:18:31;;;;;;;0.50;0.50;;;;;;;;;;6213035;23;20187;-89
2023/11/17 10:21:38;;;;;;;0.30;0.30;;;;;;;;;;6208163;23;20172;-91
2023/11/17 10:24:44;;;;;;;0.50;0.50;;;;;;;;;;6208677;23;20162;-90
2023/11/17 10:27:52;;;;;;;0.40;0.40;;;;;;;;;;6208846;23;20171;-89
2023/11/17 10:31:01;;;;;;;0.73;0.73;;;;;;;;;;6212572;22;20171;-90
2023/11/17 10:34:12;;;;;;;0.40;0.40;;;;;;;;;;6212278;22;20499;-90
2023/11/17 10:37:20;;;;;;;0.60;0.60;;;;;;;;;;6214044;23;20199;-91
2023/11/17 10:40:28;;;;;;;0.50;0.50;;;;;;;;;;6211224;23;20174;-91
2023/11/17 10:43:48;;;;;;;0.30;0.30;;;;;;;;;;6210020;23;20162;-90
2023/11/17 10:46:53;;;;;;;0.32;0.32;;;;;;;;;;6209269;22;20171;-90
2023/11/17 10:50:08;;;;;;;0.55;0.55;;;;;;;;;;6209727;22;20171;-89
2023/11/17 10:53:19;;;;;;;0.52;0.52;;;;;;;;;;6209895;23;20171;-93
2023/11/17 10:56:27;;;;;;;0.40;0.40;;;;;;;;;;6208397;23;20195;-91
2023/11/17 10:59:36;;;;;;;1.35;1.05;;;;;;;;;;6212358;23;20243;-90
2023/11/17 11:02:50;;;;;;;0.40;0.40;;;;;;;;;;6212598;23;20175;-90
2023/11/17 11:05:59;;;;;;;0.30;0.30;;;;;;;;;;6212108;23;20179;-90
2023/11/17 11:09:05;;;;;;;0.60;0.60;;;;;;;;;;6211065;23;20187;-90
2023/11/17 11:12:14;;;;;;;0.63;0.63;;;;;;;;;;6210244;23;20158;-92
2023/11/17 11:15:21;;;;;;;0.43;0.43;;;;;;;;;;6210249;23;20179;-91
2023/11/17 11:18:35;;;;;;;0.45;0.45;;;;;;;;;;6211161;23;20594;-93
2023/11/17 11:21:40;;;;;;;12.13;4.03;;;;;;;;;;6210249;23;20166;-92
2023/11/17 11:24:45;;;;;;;5.25;3.28;;;;;;;;;;6211708;23;20606;-91
2023/11/17 11:27:52;;;;;;;5.10;2.90;;;;;;;;;;6213719;23;20171;-92
2023/11/17 11:30:59;;;;;;;5.55;3.67;;;;;;;;;;6208597;23;20210;-90
2023/11/17 11:34:12;;;;;;;9.43;3.45;;;;;;;;;;6215198;23;20171;-91
2023/11/17 11:37:18;;;;;;;7.32;3.55;;;;;;;;;;6214913;23;20178;-92
2023/11/17 11:40:26;;;;;;;7.88;3.47;;;;;;;;;;6214380;23;20500;-91
2023/11/17 11:43:32;;;;;;;10.20;3.13;;;;;;;;;;6215304;23;20202;-93
2023/11/17 11:46:39;;;;;;;5.60;2.90;;;;;;;;;;6214634;23;20187;-92
2023/11/17 11:49:45;;;;;;;4.70;2.75;;;;;;;;;;6213811;23;20250;-91
2023/11/17 11:53:07;;;;;;;7.13;3.10;;;;;;;;;;6213465;23;20171;-93
2023/11/17 11:56:15;;;;;;;6.03;3.20;;;;;;;;;;6211840;22;20175;-92
2023/11/17 11:59:24;;;;;;;5.20;3.05;;;;;;;;;;6213569;22;20167;-94
2023/11/17 12:02:36;;;;;;;5.80;3.08;;;;;;;;;;6214534;23;20253;-93
2023/11/17 12:05:45;;;;;;;6.03;2.72;;;;;;;;;;6215216;23;20167;-90
2023/11/17 12:12:16;;;;;;;6.68;3.22;;;;;;;;;;6216391;22;20172;-92
2023/11/17 12:15:24;;;;;;;5.22;2.30;;;;;;;;;;6214686;22;20163;-91
2023/11/17 12:18:34;;;;;;;2.70;1.90;;;;;;;;;;6218154;23;20187;-93
2023/11/17 12:21:47;;;;;;;5.18;2.15;;;;;;;;;;6217063;23;20166;-93
2023/11/17 12:25:00;;;;;;;6.07;2.30;;;;;;;;;;6216306;22;20171;-92
2023/11/17 12:28:11;;;;;;;3.13;1.77;;;;;;;;;;6216157;22;20240;-90
2023/11/17 12:31:21;;;;;;;8.90;2.13;;;;;;;;;;6215829;23;20167;-90
2023/11/17 12:34:29;;;;;;;6.38;2.00;;;;;;;;;;6218404;23;20215;-90
2023/11/17 12:37:38;;;;;;;4.70;1.80;;;;;;;;;;6217125;23;20191;-92
2023/11/17 12:41:00;;;;;;;3.97;1.73;;;;;;;;;;6215654;23;20175;-91
2023/11/17 12:44:09;;;;;;;4.00;2.13;;;;;;;;;;6216464;23;20619;-92
2023/11/17 12:47:18;;;;;;;4.18;1.70;;;;;;;;;;6216359;23;20231;-93
2023/11/17 12:50:40;;;;;;;3.15;1.40;;;;;;;;;;6217473;23;20166;-91
2023/11/17 12:53:49;;;;;;;6.03;1.98;;;;;;;;;;6217633;22;20171;-91
2023/11/17 12:56:56;;;;;;;4.53;1.83;;;;;;;;;;6217129;23;20635;-92
2023/11/17 13:00:13;;;;;;;5.35;1.92;;;;;;;;;;6216110;23;20171;-91
2023/11/17 13:03:35;;;;;;;4.78;1.80;;;;;;;;;;6216114;22;20187;-91
2023/11/17 13:06:47;;;;;;;2.95;1.60;;;;;;;;;;6199724;22;20171;-93
2023/11/17 13:13:18;;;;;;;2.47;1.70;;;;;;;;;;6215757;23;20502;-94
2023/11/17 13:16:49;;;;;;;9.32;2.28;;;;;;;;;;6217812;23;20175;-92
2023/11/17 13:19:59;;;;;;;3.75;1.80;;;;;;;;;;6215433;22;20163;-92
2023/11/17 13:23:11;;;;;;;3.15;1.73;;;;;;;;;;6218230;23;20151;-92
2023/11/17 13:26:20;;;;;;;3.75;2.05;;;;;;;;;;6216532;23;20488;-91
2023/11/17 13:29:30;;;;;;;5.22;2.00;;;;;;;;;;6214412;23;20614;-91
2023/11/17 13:32:56;;;;;;;6.38;2.17;;;;;;;;;;6215571;23;20175;-91
2023/11/17 13:36:04;;;;;;;6.22;2.70;;;;;;;;;;6216500;23;20187;-91
2023/11/17 13:42:51;;;;;;;6.28;2.10;;;;;;;;;;6215000;23;20171;-92
2023/11/17 13:45:56;;;;;;;4.82;2.40;;;;;;;;;;6214449;23;20616;-93
2023/11/17 13:49:04;;;;;;;4.80;2.08;;;;;;;;;;6217778;23;20150;-93
2023/11/17 13:52:11;;;;;;;5.55;1.92;;;;;;;;;;6215396;23;20490;-93
2023/11/17 13:55:34;;;;;;;2.75;1.85;;;;;;;;;;6215376;23;20171;-92
2023/11/17 13:58:53;;;;;;;3.22;1.85;;;;;;;;;;6214554;23;20191;-91
2023/11/17 14:02:08;;;;;;;2.95;1.95;;;;;;;;;;6213849;23;20172;-90
2023/11/17 14:05:16;;;;;;;6.05;2.08;;;;;;;;;;6199232;23;20252;-92
2023/11/17 14:08:22;;;;;;;3.85;1.85;;;;;;;;;;6218026;23;20186;-92
2023/11/17 14:11:35;;;;;;;4.90;2.33;;;;;;;;;;6215824;22;20238;-92
2023/11/17 14:14:41;;;;;;;5.07;2.00;;;;;;;;;;6215580;23;20175;-92
2023/11/17 14:17:50;;;;;;;4.18;1.85;;;;;;;;;;6215522;23;20195;-91
2023/11/17 14:20:56;;;;;;;3.30;1.83;;;;;;;;;;6214423;23;20646;-92
2023/11/17 14:24:02;;;;;;;5.85;2.10;;;;;;;;;;6212981;22;20218;-93
2023/11/17 14:27:12;;;;;;;5.25;2.00;;;;;;;;;;6214539;23;20158;-93
2023/11/17 14:30:25;;;;;;;3.65;1.83;;;;;;;;;;6215661;23;20167;-91
2023/11/17 14:33:32;;;;;;;4.78;1.80;;;;;;;;;;6214834;23;20175;-92
2023/11/17 14:36:38;;;;;;;3.50;1.67;;;;;;;;;;6216794;23;20175;-93
2023/11/17 14:39:44;;;;;;;3.30;1.70;;;;;;;;;;6215454;22;20278;-92
2023/11/17 14:42:54;;;;;;;5.80;1.70;;;;;;;;;;6215043;22;20171;-93
2023/11/17 14:46:01;;;;;;;2.92;1.65;;;;;;;;;;6198860;23;20167;-91
2023/11/17 14:49:09;;;;;;;4.43;1.90;;;;;;;;;;6214662;23;20191;-93
2023/11/17 14:52:19;;;;;;;7.43;2.10;;;;;;;;;;6214081;23;20171;-90
2023/11/17 14:55:27;;;;;;;4.95;1.83;;;;;;;;;;6216331;23;20222;-90
2023/11/17 14:58:34;;;;;;;6.78;1.70;;;;;;;;;;6213804;23;20263;-90
2023/11/17 15:01:42;;;;;;;4.70;2.15;;;;;;;;;;6215040;22;20166;-91
2023/11/17 15:11:26;;;;;;;3.10;1.75;;;;;;;;;;6217875;23;20167;-93
2023/11/17 15:14:33;;;;;;;4.22;2.00;;;;;;;;;;6212070;23;20260;-94
2023/11/17 15:17:38;;;;;;;7.68;3.35;;;;;;;;;;6212199;23;20654;-93
2023/11/17 15:20:43;;;;;;;6.95;2.90;;;;;;;;;;6215219;22;20224;-92
2023/11/17 15:23:55;;;;;;;6.10;2.33;;;;;;;;;;6212813;22;20183;-91
2023/11/17 15:27:02;;;;;;;4.18;2.17;;;;;;;;;;6216204;23;20215;-90
2023/11/17 15:30:13;;;;;;;9.40;3.33;;;;;;;;;;6214312;23;20178;-91
2023/11/17 15:33:19;;;;;;;8.35;2.10;;;;;;;;;;6215553;23;20498;-92
2023/11/17 15:36:26;;;;;;;6.30;2.30;;;;;;;;;;6215968;22;20154;-91
2023/11/17 15:39:32;;;;;;;10.73;4.50;;;;;;;;;;6216714;22;20215;-92
2023/11/17 15:42:37;;;;;;;6.03;3.15;;;;;;;;;;6217443;23;20171;-91
2023/11/17 15:45:46;;;;;;;5.93;2.88;;;;;;;;;;6215632;23;20580;-90
2023/11/17 15:48:52;;;;;;;7.73;3.00;;;;;;;;;;6217292;23;20533;-91
2023/11/17 15:52:05;;;;;;;6.77;2.60;;;;;;;;;;6217957;23;20221;-90
2023/11/17 15:55:16;;;;;;;8.85;3.70;;;;;;;;;;6211119;23;20182;-90
2023/11/17 15:58:23;;;;;;;6.53;2.90;;;;;;;;;;6214477;23;20242;-91
2023/11/17 16:01:32;;;;;;;8.47;3.50;;;;;;;;;;6214646;23;20170;-91
2023/11/17 16:04:49;;;;;;;5.20;2.40;;;;;;;;;;6214531;23;20179;-91
2023/11/17 16:07:54;;;;;;;5.35;2.42;;;;;;;;;;6216274;22;20255;-92
2023/11/17 16:11:02;;;;;;;9.53;2.97;;;;;;;;;;6215879;23;20162;-88
2023/11/17 16:14:09;;;;;;;7.97;3.23;;;;;;;;;;6217239;23;20163;-90
2023/11/17 16:17:16;;;;;;;19.60;7.82;;;;;;;;;;6215927;23;20218;-92
2023/11/17 16:20:23;;;;;;;9.70;4.47;;;;;;;;;;6216274;22;20167;-92
2023/11/17 16:23:28;;;;;;;10.17;4.77;;;;;;;;;;6214193;22;20251;-90
2023/11/17 16:26:34;;;;;;;7.70;3.90;;;;;;;;;;6214324;23;20175;-90
2023/11/17 16:29:51;;;;;;;8.57;3.70;;;;;;;;;;6216052;23;20211;-90
2023/11/17 16:32:59;;;;;;;10.53;3.83;;;;;;;;;;6214213;23;20171;-94
2023/11/17 16:36:16;;;;;;;15.17;6.17;;;;;;;;;;6212238;22;20178;-93
2023/11/17 16:39:24;;;;;;;11.43;4.00;;;;;;;;;;6212218;23;20195;-92
2023/11/17 16:42:29;;;;;;;9.53;3.83;;;;;;;;;;6214653;23;20260;-92
2023/11/17 16:45:35;;;;;;;10.70;4.73;;;;;;;;;;6212341;23;20218;-92
2023/11/17 16:48:42;;;;;;;13.23;5.97;;;;;;;;;;6213586;23;20159;-93
2023/11/17 16:51:47;;;;;;;10.20;4.73;;;;;;;;;;6211150;23;20166;-93
2023/11/17 16:54:52;;;;;;;14.10;6.00;;;;;;;;;;6211340;23;20171;-92
2023/11/17 16:57:57;;;;;;;33.87;7.70;;;;;;;;;;6210412;23;20234;-91
2023/11/17 17:01:04;;;;;;;21.43;8.03;;;;;;;;;;6211876;23;20171;-92
2023/11/17 17:04:12;;;;;;;17.70;8.30;;;;;;;;;;6213137;23;20219;-92
2023/11/17 17:10:35;;;;;;;17.63;6.90;;;;;;;;;;6213119;23;20750;-91
2023/11/17 17:13:41;;;;;;;11.47;5.43;;;;;;;;;;6214183;23;20214;-90
2023/11/17 17:16:49;;;;;;;17.07;6.27;;;;;;;;;;6210519;23;20155;-90
2023/11/17 17:19:57;;;;;;;12.20;4.13;;;;;;;;;;6211336;23;20170;-90
2023/11/17 17:23:02;;;;;;;12.37;5.80;;;;;;;;;;6213264;23;20170;-90
2023/11/17 17:26:08;;;;;;;11.13;4.83;;;;;;;;;;6212481;23;20171;-91
2023/11/17 17:29:13;;;;;;;11.67;5.03;;;;;;;;;;6213731;23;20206;-90
2023/11/17 17:32:18;;;;;;;12.43;5.87;;;;;;;;;;6213501;23;20170;-93
2023/11/17 17:35:27;;;;;;;18.17;8.00;;;;;;;;;;6214764;23;20162;-92
2023/11/17 17:38:36;;;;;;;14.37;7.53;;;;;;;;;;6213310;23;20194;-92
2023/11/17 17:41:44;;;;;;;18.30;8.83;;;;;;;;;;6215090;23;20166;-92
2023/11/17 17:44:51;;;;;;;15.83;7.23;;;;;;;;;;6214236;23;20155;-89
2023/11/17 17:47:57;;;;;;;13.03;6.70;;;;;;;;;;6210751;23;20218;-90
2023/11/17 17:51:07;;;;;;;14.13;6.93;;;;;;;;;;6209946;23;20171;-92
2023/11/17 17:54:14;;;;;;;15.70;7.07;;;;;;;;;;6210441;23;20256;-91
2023/11/17 17:57:19;;;;;;;24.97;10.57;;;;;;;;;;6212807;23;20238;-90
2023/11/17 18:00:25;;;;;;;22.33;9.73;;;;;;;;;;6216549;23;20171;-94
2023/11/17 18:03:30;;;;;;;14.87;8.33;;;;;;;;;;6211442;23;20626;-91
2023/11/17 18:06:38;;;;;;;16.37;7.70;;;;;;;;;;6210759;22;20163;-89
2023/11/17 18:09:43;;;;;;;25.57;12.90;;;;;;;;;;6211171;23;20198;-92
2023/11/17 18:12:49;;;;;;;16.40;8.80;;;;;;;;;;6209751;23;20171;-90
2023/11/17 18:15:56;;;;;;;16.63;8.10;;;;;;;;;;6211024;23;20167;-90
2023/11/17 18:19:01;;;;;;;12.67;6.87;;;;;;;;;;6207612;23;20195;-91
2023/11/17 18:22:08;;;;;;;18.47;6.70;;;;;;;;;;6209461;23;20166;-90
2023/11/17 18:25:13;;;;;;;13.30;6.87;;;;;;;;;;6209211;23;20203;-90
2023/11/17 18:28:19;;;;;;;18.13;7.20;;;;;;;;;;6207886;23;20168;-91
2023/11/17 18:31:24;;;;;;;16.00;6.47;;;;;;;;;;6208143;23;20183;-90
2023/11/17 18:34:29;;;;;;;13.03;6.73;;;;;;;;;;6206979;23;20175;-89
2023/11/17 18:37:36;;;;;;;10.77;6.13;;;;;;;;;;6208499;22;20174;-91
2023/11/17 18:40:42;;;;;;;12.37;6.50;;;;;;;;;;6207892;23;20227;-93
2023/11/17 18:43:47;;;;;;;18.23;8.03;;;;;;;;;;6208560;23;20234;-91
2023/11/17 18:46:54;;;;;;;24.17;10.43;;;;;;;;;;6210225;23;20199;-91
2023/11/17 18:50:01;;;;;;;26.00;11.13;;;;;;;;;;6211141;23;20171;-89
2023/11/17 18:53:08;;;;;;;74.23;28.43;;;;;;;;;;6211608;23;20147;-91
2023/11/17 18:56:14;;;;;;;31.10;12.53;;;;;;;;;;6213029;23;20154;-90
2023/11/17 18:59:19;;;;;;;17.70;8.43;;;;;;;;;;6212526;23;20199;-93
2023/11/17 19:02:26;;;;;;;13.13;6.77;;;;;;;;;;6214192;23;20298;-93
2023/11/17 19:05:31;;;;;;;11.33;6.47;;;;;;;;;;6213918;23;20171;-93
2023/11/17 19:08:38;;;;;;;16.03;7.87;;;;;;;;;;6211410;23;20167;-90
2023/11/17 19:11:44;;;;;;;17.30;6.70;;;;;;;;;;6211609;22;20174;-93
2023/11/17 19:14:50;;;;;;;10.63;5.57;;;;;;;;;;6212725;23;20166;-91
2023/11/17 19:17:57;;;;;;;51.17;20.07;;;;;;;;;;6211679;23;20251;-92
2023/11/17 19:21:02;;;;;;;21.83;7.87;;;;;;;;;;6211046;23;20506;-90
2023/11/17 19:24:10;;;;;;;16.97;7.63;;;;;;;;;;6211620;23;20151;-91
2023/11/17 19:27:18;;;;;;;17.87;8.50;;;;;;;;;;6212638;22;20174;-91
2023/11/17 19:30:24;;;;;;;35.37;14.10;;;;;;;;;;6213154;23;20178;-90
2023/11/17 19:33:31;;;;;;;99.90;36.73;;;;;;;;;;6213572;23;20593;-90
2023/11/17 19:36:36;;;;;;;47.40;19.17;;;;;;;;;;6211520;23;20194;-89
2023/11/17 19:39:44;;;;;;;43.03;16.20;;;;;;;;;;6210386;23;20473;-90
2023/11/17 19:42:49;;;;;;;28.97;12.23;;;;;;;;;;6212590;22;20167;-91
2023/11/17 19:45:55;;;;;;;24.97;12.10;;;;;;;;;;6211484;23;20247;-92
2023/11/17 19:49:01;;;;;;;22.87;9.00;;;;;;;;;;6212220;23;20242;-90
2023/11/17 19:52:07;;;;;;;17.13;7.10;;;;;;;;;;6209716;23;20238;-90
2023/11/17 19:55:15;;;;;;;22.90;9.10;;;;;;;;;;6211507;23;20179;-90
2023/11/17 19:58:19;;;;;;;17.53;7.90;;;;;;;;;;6212327;23;20166;-91
2023/11/17 20:01:25;;;;;;;36.53;13.90;;;;;;;;;;6212369;23;20167;-90
2023/11/17 20:04:30;;;;;;;73.97;26.43;;;;;;;;;;6213230;23;20230;-90
2023/11/17 20:07:35;;;;;;;32.20;12.53;;;;;;;;;;6209907;23;20164;-90
2023/11/17 20:10:42;;;;;;;17.13;7.67;;;;;;;;;;6210885;23;20265;-92
2023/11/17 20:13:48;;;;;;;24.30;10.53;;;;;;;;;;6210558;22;20225;-91
2023/11/17 20:16:53;;;;;;;25.60;8.90;;;;;;;;;;6210879;23;20619;-91
2023/11/17 20:19:58;;;;;;;20.80;8.57;;;;;;;;;;6209709;23;20254;-91
2023/11/17 20:23:05;;;;;;;16.73;7.57;;;;;;;;;;6211758;23;20249;-90
2023/11/17 20:26:12;;;;;;;17.37;7.53;;;;;;;;;;6211313;23;20158;-91
2023/11/17 20:29:20;;;;;;;23.83;7.67;;;;;;;;;;6212473;23;20187;-92
2023/11/17 20:32:26;;;;;;;79.63;36.50;;;;;;;;;;6213075;23;20171;-91
2023/11/17 20:35:32;;;;;;;16.33;7.33;;;;;;;;;;6213224;23;20219;-91
2023/11/17 20:38:39;;;;;;;17.17;8.37;;;;;;;;;;6212614;23;20234;-92
2023/11/17 20:41:47;;;;;;;16.97;7.47;;;;;;;;;;6212173;22;20250;-92
2023/11/17 20:44:56;;;;;;;14.53;6.53;;;;;;;;;;6214568;23;20618;-91
2023/11/17 20:48:02;;;;;;;15.30;6.57;;;;;;;;;;6211697;23;20259;-92
2023/11/17 20:51:07;;;;;;;17.67;8.23;;;;;;;;;;6213087;23;20214;-91
2023/11/17 20:54:16;;;;;;;27.30;12.03;;;;;;;;;;6210044;23;20155;-92
2023/11/17 20:57:26;;;;;;;18.13;8.43;;;;;;;;;;6214324;22;20171;-92
2023/11/17 21:00:34;;;;;;;13.97;6.77;;;;;;;;;;6214448;23;20230;-92
2023/11/17 21:03:39;;;;;;;27.37;13.27;;;;;;;;;;6214171;23;20162;-91
2023/11/17 21:06:45;;;;;;;37.07;16.57;;;;;;;;;;6212515;23;20170;-93
2023/11/17 21:09:50;;;;;;;26.50;11.00;;;;;;;;;;6210965;23;20618;-93
2023/11/17 21:13:03;;;;;;;65.47;29.37;;;;;;;;;;6213622;22;20159;-92
2023/11/17 21:16:11;;;;;;;49.60;22.53;;;;;;;;;;6213246;22;20166;-90
2023/11/17 21:19:17;;;;;;;38.90;18.77;;;;;;;;;;6212159;23;20264;-92
2023/11/17 21:22:22;;;;;;;27.63;12.90;;;;;;;;;;6210959;23;20170;-89
2023/11/17 21:25:30;;;;;;;27.27;12.17;;;;;;;;;;6210164;23;20273;-93
2023/11/17 21:28:37;;;;;;;33.10;15.07;;;;;;;;;;6209016;22;20230;-90
2023/11/17 21:31:42;;;;;;;80.20;32.70;;;;;;;;;;6211895;23;20187;-91
2023/11/17 21:34:49;;;;;;;44.70;18.20;;;;;;;;;;6213294;23;20171;-92
2023/11/17 21:37:55;;;;;;;84.23;32.53;;;;;;;;;;6209476;23;20175;-92
2023/11/17 21:41:01;;;;;;;110.67;40.40;;;;;;;;;;6208290;23;20187;-91